Aviation Digital Data Service (ADDS)

Output produced by METARs form (1612 UTC 17 October 2021)
found at http://aviationweather.gov/metar/data/
 
METAR text: EDDW 171550Z 21005KT CAVOK 12/06 Q1019 NOSIG
Conditions at: EDDW (BREMEN , DE) observed 1550 UTC 17 October 2021
Temperature: 12.0°C (54°F)
Dewpoint: 6.0°C (43°F) [RH = 67%]
Pressure (altimeter): 30.09 inches Hg (1019.0 mb)
Winds: from the SSW (210 degrees) at 6 MPH (5 knots; 2.6 m/s)
Visibility: 6 or more miles (10+ km)
Ceiling: ceiling and visibility are OK
Clouds: unknown
Weather: no significant weather observed at this time

METAR text: EDDW 171520Z 21006KT CAVOK 12/06 Q1019 NOSIG
Conditions at: EDDW (BREMEN , DE) observed 1520 UTC 17 October 2021
Temperature: 12.0°C (54°F)
Dewpoint: 6.0°C (43°F) [RH = 67%]
Pressure (altimeter): 30.09 inches Hg (1019.0 mb)
Winds: from the SSW (210 degrees) at 7 MPH (6 knots; 3.1 m/s)
Visibility: 6 or more miles (10+ km)
Ceiling: ceiling and visibility are OK
Clouds: unknown
Weather: no significant weather observed at this time

Forecast for: EDDW (BREMEN , DE)
Text: TAF EDDW 171100Z 1712/1812 23007KT 9999 SCT020 BKN045
Forecast period: 1200 UTC 17 October 2021 to 1200 UTC 18 October 2021
Forecast type: FROM: standard forecast or significant change
Winds: from the SW (230 degrees) at 8 MPH (7 knots; 3.6 m/s)
Visibility: 6 or more miles (10+ km)
Ceiling: 4500 feet AGL
Clouds: scattered clouds at 2000 feet AGL
broken clouds at 4500 feet AGL
Weather: no significant weather forecast for this period